createdAt,value
2024-05-09T00:01:52.565Z,9.64
2024-05-09T00:04:22.261Z,9.53
2024-05-09T00:06:51.790Z,9.32
2024-05-09T00:09:23.801Z,9.25
2024-05-09T00:11:53.531Z,9.33
2024-05-09T00:14:23.111Z,9.21
2024-05-09T00:16:52.818Z,9.07
2024-05-09T00:19:22.547Z,8.90
2024-05-09T00:21:52.094Z,8.91
2024-05-09T00:24:24.092Z,8.85
2024-05-09T00:26:53.570Z,8.73
2024-05-09T00:29:24.060Z,8.74
2024-05-09T00:31:53.699Z,8.62
2024-05-09T00:34:23.937Z,8.71
2024-05-09T00:36:53.506Z,8.65
2024-05-09T00:39:25.523Z,8.62
2024-05-09T00:41:55.075Z,8.57
2024-05-09T00:44:24.712Z,8.56
2024-05-09T00:46:55.431Z,8.46
2024-05-09T00:49:25.255Z,8.37
2024-05-09T00:51:54.799Z,8.36
2024-05-09T00:54:26.900Z,8.36
2024-05-09T00:56:56.588Z,8.40
2024-05-09T00:59:26.265Z,8.31
2024-05-09T01:01:55.969Z,8.37
2024-05-09T01:04:25.568Z,8.35
2024-05-09T01:06:55.073Z,8.36
2024-05-09T01:09:27.126Z,8.39
2024-05-09T01:11:56.678Z,8.38
2024-05-09T01:14:26.243Z,8.34
2024-05-09T01:16:55.786Z,8.36
2024-05-09T01:19:26.363Z,8.31
2024-05-09T01:21:56.072Z,8.31
2024-05-09T01:24:28.107Z,8.39
2024-05-09T01:26:57.610Z,8.39
2024-05-09T01:29:27.178Z,8.40
2024-05-09T01:31:59.070Z,8.11
2024-05-09T01:34:28.916Z,8.11
2024-05-09T01:36:58.438Z,7.93
2024-05-09T01:39:30.451Z,7.87
2024-05-09T01:41:59.933Z,7.91
2024-05-09T01:44:29.500Z,7.71
2024-05-09T01:46:59.180Z,7.70
2024-05-09T01:49:28.814Z,7.77
2024-05-09T01:51:58.371Z,7.72
2024-05-09T01:54:30.412Z,7.70
2024-05-09T01:56:59.910Z,7.58
2024-05-09T01:59:29.436Z,7.41
2024-05-09T02:01:59.439Z,7.56
2024-05-09T02:04:30.523Z,7.58
2024-05-09T02:07:00.196Z,7.36
2024-05-09T02:09:32.228Z,7.40
2024-05-09T02:12:01.960Z,7.31
2024-05-09T02:14:31.661Z,7.16
2024-05-09T02:17:01.254Z,7.12
2024-05-09T02:19:30.971Z,7.08
2024-05-09T02:22:00.601Z,7.08
2024-05-09T02:24:32.643Z,7.05
2024-05-09T02:27:02.130Z,7.14
2024-05-09T02:29:31.654Z,7.10
2024-05-09T02:32:01.368Z,6.93
2024-05-09T02:34:31.010Z,7.00
2024-05-09T02:36:57.952Z,6.99
2024-05-09T02:39:27.476Z,6.77
2024-05-09T02:41:56.919Z,6.86
2024-05-09T02:44:26.632Z,6.86
2024-05-09T02:46:53.750Z,6.75
2024-05-09T02:49:23.376Z,6.83
2024-05-09T02:51:50.341Z,6.74
2024-05-09T02:54:19.829Z,6.62
2024-05-09T02:56:46.792Z,6.57
2024-05-09T02:59:18.985Z,6.61
2024-05-09T03:01:46.102Z,6.53
2024-05-09T03:04:15.740Z,6.52
2024-05-09T03:06:42.674Z,6.40
2024-05-09T03:09:12.172Z,6.30
2024-05-09T03:11:40.476Z,6.37
2024-05-09T03:14:10.170Z,6.39
2024-05-09T03:16:40.420Z,6.39
2024-05-09T03:19:10.466Z,6.30
2024-05-09T03:21:38.828Z,6.40
2024-05-09T03:24:08.763Z,6.29
2024-05-09T03:26:35.770Z,6.35
2024-05-09T03:29:05.339Z,6.36
2024-05-09T03:31:32.266Z,6.40
2024-05-09T03:34:04.580Z,6.30
2024-05-09T03:36:31.739Z,6.34
2024-05-09T03:39:01.249Z,6.36
2024-05-09T03:41:28.232Z,6.42
2024-05-09T03:43:57.789Z,6.25
2024-05-09T03:46:27.294Z,6.23
2024-05-09T03:48:54.375Z,6.29
2024-05-09T03:51:26.459Z,6.32
2024-05-09T03:53:53.383Z,6.35
2024-05-09T03:56:22.978Z,6.34
2024-05-09T03:58:50.020Z,6.40
2024-05-09T04:01:19.621Z,6.45
2024-05-09T04:03:46.719Z,6.53
2024-05-09T04:06:22.578Z,6.48
2024-05-09T04:08:52.008Z,6.50
2024-05-09T04:11:21.632Z,6.77
2024-05-09T04:13:48.661Z,6.78
2024-05-09T04:16:18.219Z,6.86
2024-05-09T04:18:45.234Z,6.92
2024-05-09T04:21:14.849Z,7.08
2024-05-09T04:23:42.032Z,7.14
2024-05-09T04:26:14.223Z,7.17
2024-05-09T04:28:41.192Z,7.29
2024-05-09T04:31:10.694Z,7.34
2024-05-09T04:33:37.739Z,7.38
2024-05-09T04:36:07.559Z,7.60
2024-05-09T04:38:34.638Z,7.54
2024-05-09T04:41:04.357Z,7.56
2024-05-09T04:43:35.235Z,7.58
2024-05-09T04:46:04.748Z,7.67
2024-05-09T04:48:31.870Z,7.68
2024-05-09T04:51:01.523Z,7.81
2024-05-09T04:53:28.562Z,7.92
2024-05-09T04:55:58.122Z,7.89
2024-05-09T04:58:25.106Z,8.01
2024-05-09T05:00:57.157Z,8.05
2024-05-09T05:03:24.474Z,7.90
2024-05-09T05:05:54.204Z,8.00
2024-05-09T05:08:21.227Z,7.99
2024-05-09T05:10:50.838Z,8.08
2024-05-09T05:13:20.800Z,8.16
2024-05-09T05:15:51.653Z,8.29
2024-05-09T05:18:21.610Z,8.50
2024-05-09T05:20:51.521Z,8.46
2024-05-09T05:23:19.087Z,8.64
2024-05-09T05:25:50.096Z,8.75
2024-05-09T05:28:17.538Z,8.92
2024-05-09T05:30:47.099Z,9.06
2024-05-09T05:33:14.574Z,9.28
2024-05-09T05:35:46.897Z,9.26
2024-05-09T05:38:13.891Z,9.50
2024-05-09T05:40:43.431Z,9.62
2024-05-09T05:43:15.842Z,9.40
2024-05-09T05:45:45.397Z,9.60
2024-05-09T05:48:12.966Z,9.82
2024-05-09T05:50:42.747Z,9.73
2024-05-09T05:53:12.313Z,9.95
2024-05-09T05:55:42.000Z,10.10
2024-05-09T05:58:09.228Z,10.13
2024-05-09T06:00:40.378Z,10.18
2024-05-09T06:03:08.606Z,10.14
2024-05-09T06:05:39.797Z,10.30
2024-05-09T06:08:07.575Z,10.43
2024-05-09T06:10:41.102Z,10.52
2024-05-09T06:13:10.382Z,10.78
2024-05-09T06:15:40.293Z,11.05
2024-05-09T06:18:07.815Z,11.06
2024-05-09T06:20:39.490Z,10.79
2024-05-09T06:23:07.144Z,11.04
2024-05-09T06:25:39.364Z,11.25
2024-05-09T06:28:06.540Z,11.46
2024-05-09T06:30:40.200Z,11.30
2024-05-09T06:33:10.209Z,11.34
2024-05-09T06:35:41.405Z,11.32
2024-05-09T06:38:09.202Z,11.48
2024-05-09T06:40:43.701Z,11.60
2024-05-09T06:43:11.649Z,12.05
2024-05-09T06:45:41.686Z,12.09
2024-05-09T06:48:09.428Z,12.51
2024-05-09T06:50:40.059Z,12.56
2024-05-09T06:53:07.726Z,12.46
2024-05-09T06:55:37.837Z,12.58
2024-05-09T06:58:08.989Z,12.97
2024-05-09T07:00:40.942Z,13.08
2024-05-09T07:03:09.472Z,13.40
2024-05-09T07:05:39.686Z,13.41
2024-05-09T07:08:07.081Z,13.59
2024-05-09T07:10:37.226Z,13.91
2024-05-09T07:13:10.602Z,14.10
2024-05-09T07:15:40.221Z,14.33
2024-05-09T07:18:11.089Z,14.60
2024-05-09T07:20:41.751Z,14.61
2024-05-09T07:23:09.082Z,14.51
2024-05-09T07:25:38.796Z,14.30
2024-05-09T07:28:05.975Z,14.64
2024-05-09T07:30:38.313Z,14.43
2024-05-09T07:33:06.121Z,14.57
2024-05-09T07:35:36.047Z,14.80
2024-05-09T07:38:03.265Z,14.85
2024-05-09T07:40:36.365Z,15.12
2024-05-09T07:43:04.082Z,15.29
2024-05-09T07:49:44.655Z,15.33
2024-05-09T07:53:40.957Z,15.44
2024-05-09T07:56:14.570Z,15.38
2024-05-09T07:58:43.028Z,15.57
2024-05-09T08:01:12.891Z,15.79
2024-05-09T08:03:42.788Z,15.79
2024-05-09T08:06:12.380Z,15.78
2024-05-09T08:08:39.310Z,16.02
2024-05-09T08:11:08.908Z,15.79
2024-05-09T08:13:35.939Z,16.25
2024-05-09T08:16:05.528Z,16.19
2024-05-09T08:18:32.775Z,16.22
2024-05-09T08:21:05.124Z,16.21
2024-05-09T08:23:32.066Z,16.54
2024-05-09T08:26:01.575Z,17.13
2024-05-09T08:28:28.612Z,17.29
2024-05-09T08:30:58.344Z,17.21
2024-05-09T08:33:25.595Z,17.26
2024-05-09T08:35:55.221Z,17.64
2024-05-09T08:38:24.732Z,17.87
2024-05-09T08:40:54.269Z,17.68
2024-05-09T08:43:21.419Z,17.89
2024-05-09T08:45:51.941Z,17.70
2024-05-09T08:48:19.764Z,17.97
2024-05-09T08:50:49.603Z,18.14
2024-05-09T08:53:16.661Z,18.26
2024-05-09T08:55:48.706Z,18.27
2024-05-09T08:58:16.731Z,18.61
2024-05-09T09:00:46.808Z,18.38
2024-05-09T09:03:15.581Z,18.20
2024-05-09T09:05:45.352Z,18.24
2024-05-09T09:08:12.318Z,18.62
2024-05-09T09:10:41.981Z,19.07
2024-05-09T09:13:11.850Z,19.06
2024-05-09T09:15:49.217Z,18.91
2024-05-09T09:18:16.406Z,19.04
2024-05-09T09:20:46.184Z,18.66
2024-05-09T09:23:13.235Z,19.57
2024-05-09T09:25:43.062Z,21.07
2024-05-09T09:28:12.791Z,20.45
2024-05-09T09:30:42.512Z,21.02
2024-05-09T09:33:10.025Z,19.93
2024-05-09T09:35:42.217Z,21.21
2024-05-09T09:38:10.652Z,21.62
2024-05-09T09:40:44.928Z,21.56
2024-05-09T09:43:19.175Z,22.13
2024-05-09T09:45:49.185Z,23.37
2024-05-09T09:48:16.266Z,22.26
2024-05-09T09:50:45.860Z,24.30
2024-05-09T09:53:13.052Z,24.40
2024-05-09T09:55:42.582Z,23.39
2024-05-09T09:58:12.136Z,23.85
2024-05-09T10:00:46.428Z,23.38
2024-05-09T10:03:13.565Z,23.02
2024-05-09T10:05:46.077Z,23.07
2024-05-09T10:08:14.205Z,22.09
2024-05-09T10:10:43.962Z,21.79
2024-05-09T10:13:11.052Z,21.57
2024-05-09T10:15:49.276Z,21.89
2024-05-09T10:18:16.635Z,29.36
2024-05-09T10:20:46.377Z,28.31
2024-05-09T10:23:23.369Z,29.27
2024-05-09T10:25:57.870Z,38.42
2024-05-09T10:28:27.911Z,32.90
2024-05-09T10:31:12.962Z,37.31
2024-05-09T10:33:40.429Z,39.93
2024-05-09T10:36:16.403Z,39.90
2024-05-09T10:38:43.456Z,29.44
2024-05-09T10:41:13.278Z,29.41
2024-05-09T10:43:40.591Z,37.81
2024-05-09T10:46:13.459Z,38.58
2024-05-09T10:48:41.959Z,41.51
2024-05-09T10:51:11.624Z,41.62
2024-05-09T10:53:42.249Z,43.29
2024-05-09T10:56:11.778Z,31.16
2024-05-09T10:58:38.760Z,27.56
2024-05-09T11:01:09.034Z,27.88
2024-05-09T11:03:39.574Z,34.93
2024-05-09T11:06:09.771Z,36.93
2024-05-09T11:08:36.807Z,28.80
2024-05-09T11:11:08.465Z,39.46
2024-05-09T11:13:36.231Z,40.28
2024-05-09T11:16:06.195Z,40.49
2024-05-09T11:18:37.851Z,44.86
2024-05-09T11:21:14.306Z,44.18
2024-05-09T11:23:41.462Z,42.16
2024-05-09T11:26:15.106Z,40.07
2024-05-09T11:28:43.859Z,40.02
2024-05-09T11:31:13.475Z,39.70
2024-05-09T11:33:41.416Z,28.97
2024-05-09T11:36:13.537Z,32.70
2024-05-09T11:38:40.565Z,27.06
2024-05-09T11:41:10.068Z,28.81
2024-05-09T11:43:37.018Z,40.61
2024-05-09T11:46:06.640Z,36.12
2024-05-09T11:48:33.836Z,43.39
2024-05-09T11:51:03.441Z,43.02
2024-05-09T11:53:32.916Z,42.80
2024-05-09T11:56:02.460Z,44.01
2024-05-09T11:58:34.216Z,42.14
2024-05-09T12:01:04.204Z,42.28
2024-05-09T12:03:31.326Z,42.17
2024-05-09T12:06:01.092Z,40.71
2024-05-09T12:08:28.195Z,45.95
2024-05-09T12:11:00.476Z,42.24
2024-05-09T12:13:27.844Z,46.27
2024-05-09T12:15:57.449Z,38.16
2024-05-09T12:18:24.676Z,40.87
2024-05-09T12:20:54.203Z,45.34
2024-05-09T12:23:21.151Z,45.80
2024-05-09T12:25:50.707Z,36.78
2024-05-09T12:28:20.473Z,38.42
2024-05-09T12:30:50.708Z,43.01
2024-05-09T12:33:19.848Z,47.87
2024-05-09T12:35:51.100Z,42.69
2024-05-09T12:38:18.382Z,45.79
2024-05-09T12:40:48.041Z,47.47
2024-05-09T12:43:15.232Z,44.86
2024-05-09T12:45:47.334Z,47.30
2024-05-09T12:48:14.682Z,45.28
2024-05-09T12:50:44.367Z,45.24
2024-05-09T12:53:11.317Z,45.65
2024-05-09T12:55:48.640Z,47.57
2024-05-09T12:58:23.317Z,45.20
2024-05-09T13:00:56.278Z,41.60
2024-05-09T13:03:23.358Z,46.82
2024-05-09T13:05:53.038Z,46.86
2024-05-09T13:08:20.054Z,48.56
2024-05-09T13:10:50.210Z,48.23
2024-05-09T13:13:17.392Z,48.62
2024-05-09T13:15:47.083Z,46.32
2024-05-09T13:18:16.753Z,45.55
2024-05-09T13:20:46.735Z,44.29
2024-05-09T13:23:13.737Z,45.68
2024-05-09T13:25:43.234Z,47.47
2024-05-09T13:28:10.263Z,46.92
2024-05-09T13:30:41.926Z,45.42
2024-05-09T13:33:09.996Z,47.72
2024-05-09T13:35:47.663Z,44.60
2024-05-09T13:38:17.414Z,44.60
2024-05-09T13:40:47.468Z,45.35
2024-05-09T13:43:14.858Z,44.17
2024-05-09T13:45:44.458Z,44.20
2024-05-09T13:48:11.543Z,42.30
2024-05-09T13:50:43.685Z,45.76
2024-05-09T13:53:10.615Z,45.12
2024-05-09T13:55:40.517Z,42.47
2024-05-09T13:58:08.485Z,48.13
2024-05-09T14:00:45.923Z,47.00
2024-05-09T14:03:16.344Z,48.93
2024-05-09T14:05:50.201Z,46.36
2024-05-09T14:08:19.502Z,47.28
2024-05-09T14:10:49.734Z,42.92
2024-05-09T14:13:17.009Z,42.19
2024-05-09T14:15:46.758Z,43.45
2024-05-09T14:18:14.509Z,46.53
2024-05-09T14:20:44.409Z,41.52
2024-05-09T14:23:14.243Z,45.09
2024-05-09T14:25:45.018Z,44.04
2024-05-09T14:28:13.501Z,44.45
2024-05-09T14:30:43.320Z,45.80
2024-05-09T14:33:10.449Z,45.52
2024-05-09T14:35:40.201Z,42.40
2024-05-09T14:38:07.423Z,45.04
2024-05-09T14:40:43.278Z,43.70
2024-05-09T14:43:11.418Z,33.96
2024-05-09T14:45:41.236Z,38.81
2024-05-09T14:48:08.861Z,40.03
2024-05-09T14:50:40.411Z,39.80
2024-05-09T14:53:08.064Z,40.30
2024-05-09T14:55:41.858Z,41.35
2024-05-09T14:58:10.404Z,42.04
2024-05-09T15:00:44.614Z,44.25
2024-05-09T15:03:15.246Z,42.96
2024-05-09T15:05:45.066Z,40.57
2024-05-09T15:08:12.239Z,41.29
2024-05-09T15:10:44.487Z,41.24
2024-05-09T15:13:13.434Z,37.45
2024-05-09T15:15:45.463Z,39.17
2024-05-09T15:18:12.529Z,41.88
2024-05-09T15:20:42.436Z,41.50
2024-05-09T15:23:09.605Z,41.69
2024-05-09T15:25:39.092Z,40.33
2024-05-09T15:28:08.920Z,42.34
2024-05-09T15:30:39.602Z,39.86
2024-05-09T15:33:08.106Z,37.89
2024-05-09T15:35:41.130Z,39.00
2024-05-09T15:38:08.118Z,37.99
2024-05-09T15:40:40.281Z,39.80
2024-05-09T15:43:11.658Z,37.05
2024-05-09T15:45:41.782Z,34.66
2024-05-09T15:48:09.355Z,34.20
2024-05-09T15:50:41.564Z,36.19
2024-05-09T15:53:10.974Z,38.67
2024-05-09T15:55:41.291Z,38.63
2024-05-09T15:58:11.251Z,37.68
2024-05-09T16:00:43.209Z,35.01
2024-05-09T16:03:13.018Z,36.62
2024-05-09T16:05:44.084Z,34.80
2024-05-09T16:08:11.377Z,33.63
2024-05-09T16:10:44.454Z,33.80
2024-05-09T16:13:15.155Z,33.80
2024-05-09T16:15:45.679Z,32.80
2024-05-09T16:18:12.947Z,34.32
2024-05-09T16:20:44.257Z,32.40
2024-05-09T16:23:15.266Z,32.01
2024-05-09T16:25:45.240Z,28.62
2024-05-09T16:28:17.396Z,27.06
2024-05-09T16:30:44.556Z,26.74
2024-05-09T16:33:14.298Z,25.69
2024-05-09T16:35:41.384Z,24.65
2024-05-09T16:38:10.899Z,24.93
2024-05-09T16:40:40.549Z,23.91
2024-05-09T16:43:11.331Z,24.32
2024-05-09T16:45:43.822Z,24.66
2024-05-09T16:48:14.124Z,23.64
2024-05-09T16:50:41.408Z,22.96
2024-05-09T16:53:10.990Z,22.54
2024-05-09T16:55:38.427Z,22.61
2024-05-09T16:58:09.083Z,22.59
2024-05-09T17:00:41.391Z,22.32
2024-05-09T17:03:16.358Z,22.25
2024-05-09T17:05:44.088Z,22.06
2024-05-09T17:08:13.688Z,22.08
2024-05-09T17:10:40.898Z,21.87
2024-05-09T17:13:10.624Z,21.67
2024-05-09T17:15:40.814Z,21.35
2024-05-09T17:18:10.641Z,20.99
2024-05-09T17:20:40.183Z,20.88
2024-05-09T17:23:13.626Z,20.98
2024-05-09T17:25:41.265Z,20.93
2024-05-09T17:28:11.244Z,20.88
2024-05-09T17:30:40.714Z,20.43
2024-05-09T17:33:12.835Z,20.28
2024-05-09T17:35:45.547Z,20.00
2024-05-09T17:38:15.144Z,20.17
2024-05-09T17:40:42.141Z,19.96
2024-05-09T17:43:11.998Z,19.97
2024-05-09T17:45:40.365Z,19.87
2024-05-09T17:48:12.165Z,19.52
2024-05-09T17:50:40.105Z,19.52
2024-05-09T17:53:12.848Z,19.45
2024-05-09T17:55:39.943Z,19.26
2024-05-09T17:58:09.948Z,19.04
2024-05-09T18:00:40.318Z,18.75
2024-05-09T18:03:13.887Z,18.66
2024-05-09T18:05:42.044Z,18.87
2024-05-09T18:08:14.971Z,18.66
2024-05-09T18:10:42.246Z,18.39
2024-05-09T18:13:12.496Z,18.41
2024-05-09T18:15:39.912Z,18.11
2024-05-09T18:18:10.655Z,18.20
2024-05-09T18:20:43.764Z,17.80
2024-05-09T18:23:18.813Z,17.64
2024-05-09T18:25:46.734Z,17.33
2024-05-09T18:28:17.335Z,17.18
2024-05-09T18:30:44.738Z,16.89
2024-05-09T18:33:14.533Z,16.90
2024-05-09T18:35:42.503Z,16.69
2024-05-09T18:38:12.159Z,16.59
2024-05-09T18:40:43.798Z,16.44
2024-05-09T18:43:15.860Z,16.22
2024-05-09T18:45:43.030Z,16.22
2024-05-09T18:48:12.764Z,16.08
2024-05-09T18:50:41.248Z,15.79
2024-05-09T18:53:12.556Z,15.82
2024-05-09T18:55:42.987Z,15.72
2024-05-09T18:58:12.609Z,15.54
2024-05-09T19:00:41.826Z,15.50
2024-05-09T19:03:14.927Z,15.23
2024-05-09T19:05:43.843Z,15.17
2024-05-09T19:08:15.315Z,15.17
2024-05-09T19:10:45.877Z,15.08
2024-05-09T19:13:16.554Z,14.95
2024-05-09T19:15:44.290Z,14.85
2024-05-09T19:18:14.987Z,14.78
2024-05-09T19:20:42.707Z,14.64
2024-05-09T19:23:12.803Z,14.61
2024-05-09T19:25:39.944Z,14.57
2024-05-09T19:28:12.189Z,14.46
2024-05-09T19:30:41.972Z,14.38
2024-05-09T19:33:13.693Z,14.42
2024-05-09T19:35:42.353Z,14.20
2024-05-09T19:38:12.030Z,14.16
2024-05-09T19:40:39.147Z,14.04
2024-05-09T19:43:09.412Z,14.08
2024-05-09T19:45:39.273Z,13.99
2024-05-09T19:48:09.326Z,13.72
2024-05-09T19:50:42.127Z,13.75
2024-05-09T19:53:14.013Z,13.65
2024-05-09T19:55:41.052Z,13.62
2024-05-09T19:58:11.886Z,13.38
2024-05-09T20:00:43.765Z,13.47
2024-05-09T20:03:15.365Z,13.47
2024-05-09T20:05:44.081Z,13.45
2024-05-09T20:08:13.776Z,13.43
2024-05-09T20:10:40.866Z,13.37
2024-05-09T20:13:10.511Z,13.23
2024-05-09T20:15:37.954Z,13.13
2024-05-09T20:18:10.905Z,13.02
2024-05-09T20:20:41.679Z,13.09
2024-05-09T20:23:13.349Z,12.97
2024-05-09T20:25:40.325Z,13.01
2024-05-09T20:28:10.367Z,13.01
2024-05-09T20:30:37.753Z,12.95
2024-05-09T20:33:09.094Z,12.68
2024-05-09T20:35:39.425Z,12.86
2024-05-09T20:38:08.957Z,12.69
2024-05-09T20:40:38.617Z,12.69
2024-05-09T20:43:09.952Z,12.64
2024-05-09T20:45:37.508Z,12.56
2024-05-09T20:48:07.509Z,12.57
2024-05-09T20:50:39.487Z,12.47
2024-05-09T20:53:15.133Z,12.54
2024-05-09T20:55:42.545Z,12.44
2024-05-09T20:58:12.347Z,12.46
2024-05-09T21:00:43.103Z,12.44
2024-05-09T21:03:16.442Z,12.21
2024-05-09T21:05:44.533Z,12.22
2024-05-09T21:08:16.734Z,12.21
2024-05-09T21:10:43.843Z,12.14
2024-05-09T21:13:13.776Z,12.07
2024-05-09T21:15:40.839Z,11.98
2024-05-09T21:18:10.851Z,11.98
2024-05-09T21:20:37.971Z,11.94
2024-05-09T21:23:07.659Z,11.96
2024-05-09T21:25:37.202Z,11.92
2024-05-09T21:28:06.809Z,11.89
2024-05-09T21:30:41.257Z,11.74
2024-05-09T21:33:14.028Z,11.67
2024-05-09T21:35:42.121Z,11.54
2024-05-09T21:38:13.527Z,11.73
2024-05-09T21:40:43.489Z,11.53
2024-05-09T21:43:13.200Z,11.51
2024-05-09T21:45:40.402Z,11.41
2024-05-09T21:48:10.642Z,11.48
2024-05-09T21:50:41.066Z,11.47
2024-05-09T21:53:12.594Z,11.36
2024-05-09T21:55:42.829Z,11.27
2024-05-09T21:58:12.547Z,11.20
2024-05-09T22:00:40.854Z,11.11
2024-05-09T22:03:11.723Z,11.09
2024-05-09T22:05:41.542Z,10.96
2024-05-09T22:08:11.357Z,11.07
2024-05-09T22:10:38.548Z,11.01
2024-05-09T22:13:10.832Z,11.00
2024-05-09T22:15:39.839Z,10.97
2024-05-09T22:18:11.171Z,10.91
2024-05-09T22:20:43.718Z,10.88
2024-05-09T22:23:13.998Z,10.86
2024-05-09T22:25:41.092Z,10.86
2024-05-09T22:28:13.288Z,10.78
2024-05-09T22:30:40.552Z,10.72
2024-05-09T22:33:11.687Z,10.65
2024-05-09T22:35:39.329Z,10.60
2024-05-09T22:38:09.092Z,10.52
2024-05-09T22:40:45.535Z,10.54
2024-05-09T22:43:24.398Z,10.47
2024-05-09T22:45:52.367Z,10.65
2024-05-09T22:48:22.295Z,10.55
2024-05-09T22:50:49.431Z,10.48
2024-05-09T22:53:18.967Z,10.34
2024-05-09T22:55:45.949Z,10.31
2024-05-09T22:58:15.608Z,10.37
2024-05-09T23:00:45.253Z,10.31
2024-05-09T23:03:15.795Z,10.24
2024-05-09T23:05:42.875Z,10.31
2024-05-09T23:08:13.038Z,10.38
2024-05-09T23:10:40.058Z,10.23
2024-05-09T23:13:09.701Z,10.21
2024-05-09T23:15:37.079Z,10.09
2024-05-09T23:18:09.626Z,10.09
2024-05-09T23:20:39.243Z,10.07
2024-05-09T23:23:10.943Z,10.02
2024-05-09T23:25:38.893Z,9.97
2024-05-09T23:28:08.741Z,9.98
2024-05-09T23:30:39.076Z,9.89
2024-05-09T23:33:14.096Z,9.86
2024-05-09T23:35:41.613Z,9.72
2024-05-09T23:38:11.146Z,9.71
2024-05-09T23:40:40.551Z,9.73
2024-05-09T23:43:12.135Z,9.67
2024-05-09T23:45:39.780Z,9.55
2024-05-09T23:48:12.247Z,9.64
2024-05-09T23:50:40.470Z,9.66
2024-05-09T23:53:11.197Z,9.54
2024-05-09T23:55:38.581Z,9.55
2024-05-09T23:58:08.558Z,9.51
